Time;durP1;ratioP1;P1;durP2;ratioP2;P2;SDS_P1;SDS_P2;PMS_P1;PMS_P2;Temp;Humidity;BMP_temperature;BMP_pressure;BME280_temperature;BME280_humidity;BME280_pressure;Samples;Min_cycle;Max_cycle;Signal;HPM_P1;HPM_P2
2023/12/03 00:01:08;;;;;;;29.73;14.52;;;;;;;1.01;100.00;101641.06;4854775;29;20148;-76
2023/12/03 00:03:34;;;;;;;23.75;12.93;;;;;;;1.01;100.00;101637.47;4853061;29;20350;-76
2023/12/03 00:05:59;;;;;;;29.90;14.85;;;;;;;1.11;100.00;101637.34;4850803;29;20033;-78
2023/12/03 00:08:25;;;;;;;29.58;14.90;;;;;;;1.11;100.00;101637.34;4850235;29;20053;-76
2023/12/03 00:10:51;;;;;;;27.58;14.70;;;;;;;1.06;100.00;101642.13;4854912;29;20514;-77
2023/12/03 00:13:16;;;;;;;30.27;15.02;;;;;;;1.09;100.00;101641.53;4853925;29;20041;-77
2023/12/03 00:15:42;;;;;;;29.45;15.30;;;;;;;1.06;100.00;101642.13;4837600;29;20037;-77
2023/12/03 00:18:07;;;;;;;30.15;14.57;;;;;;;0.91;100.00;101632.91;4851860;29;20048;-76
2023/12/03 00:20:32;;;;;;;31.50;15.88;;;;;;;0.86;100.00;101638.47;4838466;29;20546;-77
2023/12/03 00:22:58;;;;;;;28.42;14.85;;;;;;;1.02;100.00;101634.44;4854790;29;20037;-76
2023/12/03 00:25:23;;;;;;;26.05;14.88;;;;;;;1.07;100.00;101639.06;4853165;29;20041;-77
2023/12/03 00:27:48;;;;;;;28.75;14.85;;;;;;;0.91;100.00;101641.19;4854086;29;20056;-77
2023/12/03 00:30:14;;;;;;;32.13;16.42;;;;;;;0.80;100.00;101640.50;4854405;29;20602;-77
2023/12/03 00:32:39;;;;;;;34.97;17.35;;;;;;;0.81;100.00;101653.13;4850187;29;20037;-76
2023/12/03 00:35:05;;;;;;;33.75;16.13;;;;;;;0.87;100.00;101642.06;4853763;29;20064;-76
2023/12/03 00:37:30;;;;;;;39.40;16.05;;;;;;;0.86;100.00;101644.00;4852342;29;20051;-73
2023/12/03 00:39:56;;;;;;;34.95;16.52;;;;;;;0.90;100.00;101655.25;4852628;29;20033;-72
2023/12/03 00:42:21;;;;;;;30.33;15.13;;;;;;;0.82;100.00;101645.69;4852147;29;20411;-72
2023/12/03 00:44:47;;;;;;;34.78;16.40;;;;;;;0.75;100.00;101656.25;4854357;29;20483;-74
2023/12/03 00:47:12;;;;;;;32.67;14.90;;;;;;;0.80;100.00;101653.44;4855628;29;20040;-72
2023/12/03 00:49:37;;;;;;;36.20;15.95;;;;;;;0.83;100.00;101654.81;4856583;29;20113;-73
2023/12/03 00:52:03;;;;;;;33.30;15.45;;;;;;;0.87;100.00;101648.41;4855293;29;20048;-74
2023/12/03 00:54:28;;;;;;;36.30;18.25;;;;;;;0.75;100.00;101650.75;4854321;29;20483;-74
2023/12/03 00:56:54;;;;;;;39.28;16.95;;;;;;;0.81;100.00;101655.09;4857584;29;20049;-74
2023/12/03 00:59:19;;;;;;;36.92;17.42;;;;;;;0.92;100.00;101655.78;4856945;29;20046;-73
2023/12/03 01:01:44;;;;;;;34.15;17.52;;;;;;;0.80;100.00;101659.78;4857986;29;20037;-74
2023/12/03 01:04:10;;;;;;;43.03;16.58;;;;;;;0.86;100.00;101652.25;4855727;29;20061;-73
2023/12/03 01:06:35;;;;;;;38.92;17.88;;;;;;;0.87;100.00;101653.91;4857654;29;20178;-75
2023/12/03 01:09:00;;;;;;;44.88;18.45;;;;;;;0.80;100.00;101650.66;4852681;29;20037;-74
2023/12/03 01:11:25;;;;;;;36.72;16.17;;;;;;;0.94;100.00;101648.03;4856622;29;20035;-73
2023/12/03 01:13:51;;;;;;;39.95;18.75;;;;;;;0.92;100.00;101650.28;4857401;29;20387;-76
2023/12/03 01:16:17;;;;;;;39.67;18.35;;;;;;;0.87;100.00;101645.66;4856685;29;20040;-73
2023/12/03 01:18:43;;;;;;;46.20;20.73;;;;;;;0.94;100.00;101654.38;4856780;29;20033;-73
2023/12/03 01:21:09;;;;;;;47.28;17.10;;;;;;;1.02;100.00;101653.72;4857845;29;20033;-73
2023/12/03 01:23:34;;;;;;;47.28;20.27;;;;;;;0.92;100.00;101655.78;4855470;29;20578;-74
2023/12/03 01:26:00;;;;;;;42.65;18.65;;;;;;;0.97;100.00;101661.22;4856874;29;20029;-76
2023/12/03 01:28:25;;;;;;;46.20;19.35;;;;;;;0.96;100.00;101668.69;4857489;29;20169;-74
2023/12/03 01:30:50;;;;;;;39.97;19.75;;;;;;;1.09;100.00;101663.56;4837733;29;20038;-74
2023/12/03 01:33:15;;;;;;;47.15;19.33;;;;;;;1.01;100.00;101660.38;4855329;29;20029;-76
2023/12/03 01:35:41;;;;;;;47.05;19.48;;;;;;;1.10;100.00;101673.50;4857533;29;20042;-73
2023/12/03 01:38:06;;;;;;;48.90;20.67;;;;;;;0.91;100.00;101684.47;4856887;29;20043;-75
2023/12/03 01:40:31;;;;;;;48.05;20.23;;;;;;;0.89;100.00;101676.50;4838358;29;20029;-74
2023/12/03 01:42:57;;;;;;;46.75;20.70;;;;;;;0.90;100.00;101683.63;4856310;29;20029;-72
2023/12/03 01:45:22;;;;;;;39.25;17.40;;;;;;;0.97;100.00;101697.91;4856578;29;20121;-73
2023/12/03 01:47:48;;;;;;;36.67;18.17;;;;;;;0.99;100.00;101694.84;4854657;29;20036;-73
2023/12/03 01:50:14;;;;;;;42.58;18.17;;;;;;;0.95;100.00;101693.78;4841491;29;20497;-73
2023/12/03 01:52:40;;;;;;;48.25;19.13;;;;;;;1.04;100.00;101696.72;4855405;29;20037;-73
2023/12/03 01:55:07;;;;;;;44.45;17.60;;;;;;;1.07;100.00;101698.91;4840150;29;20041;-75
2023/12/03 01:57:33;;;;;;;49.22;18.67;;;;;;;1.04;100.00;101703.06;4856727;29;20037;-76
2023/12/03 01:59:59;;;;;;;45.47;18.67;;;;;;;1.07;100.00;101702.47;4861820;29;20045;-76
2023/12/03 02:02:24;;;;;;;41.92;19.40;;;;;;;1.11;100.00;101710.97;4858746;29;20048;-76
2023/12/03 02:04:50;;;;;;;41.05;18.40;;;;;;;1.08;100.00;101711.56;4858357;29;20034;-75
2023/12/03 02:07:15;;;;;;;49.88;19.63;;;;;;;1.10;100.00;101712.09;4861197;29;20037;-75
2023/12/03 02:09:41;;;;;;;44.05;18.98;;;;;;;1.19;100.00;101710.34;4861259;29;20030;-77
2023/12/03 02:12:07;;;;;;;49.83;19.38;;;;;;;1.18;100.00;101719.72;4859108;29;20033;-76
2023/12/03 02:14:33;;;;;;;46.22;21.05;;;;;;;1.17;100.00;101718.91;4859994;29;20036;-76
2023/12/03 02:16:58;;;;;;;44.90;18.20;;;;;;;1.14;100.00;101718.66;4860561;29;20034;-76
2023/12/03 02:19:23;;;;;;;46.50;19.38;;;;;;;1.09;100.00;101721.47;4856088;29;20053;-76
2023/12/03 02:21:49;;;;;;;44.15;18.77;;;;;;;1.27;100.00;101729.00;4844124;29;20097;-76
2023/12/03 02:24:14;;;;;;;34.88;16.45;;;;;;;1.19;100.00;101726.88;4860422;29;20475;-76
2023/12/03 02:26:39;;;;;;;39.67;17.27;;;;;;;1.17;100.00;101726.34;4860273;29;20408;-74
2023/12/03 02:29:05;;;;;;;39.25;17.98;;;;;;;1.24;100.00;101732.31;4860925;29;20041;-77
2023/12/03 02:31:30;;;;;;;41.03;17.13;;;;;;;1.26;100.00;101721.81;4859707;29;20049;-77
2023/12/03 02:34:07;;;;;;;37.20;16.52;;;;;;;1.20;100.00;101728.50;4859993;29;20037;-75
2023/12/03 02:36:33;;;;;;;35.95;16.23;;;;;;;1.21;100.00;101722.72;4860456;29;20493;-76
2023/12/03 02:38:59;;;;;;;38.45;14.85;;;;;;;1.32;100.00;101720.66;4840230;29;20041;-76
2023/12/03 02:41:24;;;;;;;30.90;14.55;;;;;;;1.19;100.00;101721.38;4861233;29;20066;-77
2023/12/03 02:43:49;;;;;;;40.40;16.30;;;;;;;1.25;100.00;101730.41;4856631;29;20022;-76
2023/12/03 02:46:15;;;;;;;39.00;16.15;;;;;;;1.35;100.00;101730.25;4840626;29;20037;-77
2023/12/03 02:48:40;;;;;;;37.65;15.18;;;;;;;1.42;100.00;101731.56;4843076;29;20635;-77
2023/12/03 02:51:06;;;;;;;39.80;15.38;;;;;;;1.45;100.00;101721.88;4859828;29;20093;-75
2023/12/03 02:53:31;;;;;;;35.17;14.90;;;;;;;1.58;100.00;101734.13;4859770;29;20069;-75
2023/12/03 02:55:58;;;;;;;41.92;15.35;;;;;;;1.60;100.00;101720.84;4857661;29;20036;-76
2023/12/03 02:58:24;;;;;;;39.63;16.35;;;;;;;1.57;100.00;101726.97;4857703;29;20034;-77
2023/12/03 03:00:49;;;;;;;38.05;15.07;;;;;;;1.48;100.00;101723.22;4860277;29;20040;-76
2023/12/03 03:03:14;;;;;;;35.83;15.52;;;;;;;1.54;100.00;101722.03;4859535;29;20045;-76
2023/12/03 03:05:40;;;;;;;37.22;15.30;;;;;;;1.62;100.00;101730.50;4855875;29;20025;-76
2023/12/03 03:08:05;;;;;;;41.28;17.02;;;;;;;1.56;100.00;101715.13;4853614;29;20407;-75
2023/12/03 03:10:30;;;;;;;31.25;14.82;;;;;;;1.71;100.00;101722.38;4853178;29;20037;-75
2023/12/03 03:12:55;;;;;;;38.05;15.75;;;;;;;1.54;100.00;101722.03;4854670;29;20064;-75
2023/12/03 03:15:21;;;;;;;31.05;13.55;;;;;;;1.59;100.00;101721.97;4838695;29;22215;-75
2023/12/03 03:17:46;;;;;;;39.63;15.68;;;;;;;1.55;100.00;101723.69;4853748;29;20029;-75
2023/12/03 03:20:12;;;;;;;40.67;16.17;;;;;;;1.64;100.00;101727.41;4854067;29;20175;-75
2023/12/03 03:22:37;;;;;;;38.47;15.50;;;;;;;1.66;100.00;101730.69;4851976;29;20068;-75
2023/12/03 03:25:04;;;;;;;33.55;15.07;;;;;;;1.53;100.00;101726.72;4855372;29;20045;-75
2023/12/03 03:27:29;;;;;;;40.13;15.13;;;;;;;1.62;100.00;101736.00;4855216;29;20041;-77
2023/12/03 03:29:54;;;;;;;31.65;13.90;;;;;;;1.67;100.00;101731.53;4855027;29;20081;-76
2023/12/03 03:32:20;;;;;;;35.28;18.25;;;;;;;1.75;100.00;101745.50;4855812;29;20089;-76
2023/12/03 03:34:45;;;;;;;28.45;14.30;;;;;;;1.80;100.00;101744.59;4853690;29;20712;-76
2023/12/03 03:37:10;;;;;;;31.52;14.10;;;;;;;1.77;100.00;101743.25;4853408;29;20128;-76
2023/12/03 03:39:36;;;;;;;35.53;14.93;;;;;;;1.77;100.00;101748.78;4853868;29;20125;-76
2023/12/03 03:42:02;;;;;;;34.67;13.73;;;;;;;1.87;100.00;101745.03;4852749;29;20045;-75
2023/12/03 03:44:28;;;;;;;37.10;14.98;;;;;;;1.70;100.00;101756.59;4854215;29;20102;-75
2023/12/03 03:46:53;;;;;;;28.27;11.60;;;;;;;1.70;100.00;101753.81;4852042;29;20033;-76
2023/12/03 03:49:18;;;;;;;34.65;15.85;;;;;;;1.70;100.00;101753.00;4834701;29;20050;-76
2023/12/03 03:51:44;;;;;;;42.30;19.15;;;;;;;1.52;100.00;101749.09;4837352;29;20899;-76
2023/12/03 03:54:09;;;;;;;35.17;14.68;;;;;;;1.68;100.00;101745.03;4837379;29;20463;-76
2023/12/03 03:56:34;;;;;;;33.10;14.30;;;;;;;1.74;100.00;101749.34;4835554;29;20021;-76
2023/12/03 03:59:00;;;;;;;30.23;15.57;;;;;;;1.61;100.00;101755.63;4836585;29;20053;-76
2023/12/03 04:01:25;;;;;;;32.55;13.65;;;;;;;1.75;100.00;101756.53;4836192;29;20033;-75
2023/12/03 04:03:50;;;;;;;37.13;15.70;;;;;;;1.68;100.00;101750.53;4833300;29;20401;-76
2023/12/03 04:06:16;;;;;;;36.00;16.02;;;;;;;1.67;100.00;101759.13;4834809;29;20516;-76
2023/12/03 04:08:42;;;;;;;36.13;14.23;;;;;;;1.54;100.00;101752.38;4835734;29;20086;-76
2023/12/03 04:11:07;;;;;;;29.67;13.48;;;;;;;1.69;100.00;101763.25;4832398;29;20116;-76
2023/12/03 04:13:33;;;;;;;38.28;14.23;;;;;;;1.74;100.00;101749.34;4835938;29;20072;-76
2023/12/03 04:15:58;;;;;;;34.92;14.45;;;;;;;1.70;100.00;101759.34;4836479;29;20573;-76
2023/12/03 04:18:24;;;;;;;35.30;14.07;;;;;;;1.87;100.00;101753.31;4835265;29;20030;-75
2023/12/03 04:20:50;;;;;;;33.85;13.00;;;;;;;1.75;100.00;101762.06;4836973;29;20041;-75
2023/12/03 04:23:15;;;;;;;38.20;14.50;;;;;;;1.78;100.00;101761.44;4836818;29;20407;-74
2023/12/03 04:25:41;;;;;;;36.10;12.45;;;;;;;1.89;100.00;101770.41;4839767;29;20088;-74
2023/12/03 04:28:07;;;;;;;33.40;15.43;;;;;;;1.87;100.00;101769.06;4838792;29;20041;-73
2023/12/03 04:30:32;;;;;;;33.53;13.85;;;;;;;1.93;100.00;101781.69;4838007;29;20037;-74
2023/12/03 04:32:57;;;;;;;34.40;13.00;;;;;;;1.87;100.00;101771.84;4837055;29;21060;-73
2023/12/03 04:35:23;;;;;;;37.42;14.32;;;;;;;1.90;100.00;101779.50;4839693;29;20037;-73
2023/12/03 04:37:48;;;;;;;30.15;13.20;;;;;;;1.94;100.00;101786.06;4839821;29;20045;-73
2023/12/03 04:40:13;;;;;;;32.92;12.07;;;;;;;1.92;100.00;101785.56;4839262;29;20114;-74
2023/12/03 04:42:39;;;;;;;30.67;13.15;;;;;;;1.73;100.00;101786.38;4839002;29;20075;-73
2023/12/03 04:45:05;;;;;;;28.38;13.30;;;;;;;1.85;100.00;101787.88;4836173;29;20034;-73
2023/12/03 04:47:30;;;;;;;29.08;12.55;;;;;;;1.92;100.00;101788.31;4837259;29;20555;-73
2023/12/03 04:49:55;;;;;;;33.33;13.68;;;;;;;1.90;100.00;101796.06;4854753;29;20044;-73
2023/12/03 04:52:21;;;;;;;31.83;14.38;;;;;;;1.88;100.00;101792.78;4857337;29;20033;-72
2023/12/03 04:54:46;;;;;;;31.75;13.35;;;;;;;1.91;100.00;101798.53;4855116;29;20480;-72
2023/12/03 04:57:11;;;;;;;24.75;12.15;;;;;;;1.80;100.00;101797.88;4857266;29;20040;-72
2023/12/03 04:59:37;;;;;;;29.33;14.75;;;;;;;1.69;100.00;101804.63;4857309;29;20048;-74
2023/12/03 05:02:02;;;;;;;29.65;12.10;;;;;;;1.87;100.00;101805.78;4855023;29;20085;-74
2023/12/03 05:04:28;;;;;;;26.77;12.40;;;;;;;1.87;100.00;101808.53;4841239;29;20022;-75
2023/12/03 05:06:53;;;;;;;23.95;11.77;;;;;;;1.91;100.00;101798.53;4857193;29;20077;-74
2023/12/03 05:09:18;;;;;;;36.50;14.05;;;;;;;1.79;100.00;101801.75;4856876;29;20100;-75
2023/12/03 05:11:44;;;;;;;35.08;13.85;;;;;;;1.77;100.00;101809.50;4855629;29;20093;-73
2023/12/03 05:14:10;;;;;;;36.42;13.60;;;;;;;1.81;100.00;101809.72;4857435;29;20037;-74
2023/12/03 05:16:36;;;;;;;35.42;13.88;;;;;;;1.95;100.00;101809.81;4838496;29;20065;-75
2023/12/03 05:19:02;;;;;;;30.88;15.48;;;;;;;1.86;100.00;101811.63;4859498;29;20532;-73
2023/12/03 05:21:27;;;;;;;39.47;14.65;;;;;;;1.71;100.00;101802.41;4841120;29;20037;-74
2023/12/03 05:23:52;;;;;;;35.35;15.65;;;;;;;1.80;100.00;101811.66;4855691;29;20396;-75
2023/12/03 05:26:18;;;;;;;30.27;13.10;;;;;;;1.95;100.00;101801.53;4857815;29;20063;-74
2023/12/03 05:28:44;;;;;;;32.45;12.70;;;;;;;1.84;100.00;101803.63;4856595;29;20037;-75
2023/12/03 05:31:09;;;;;;;34.50;13.25;;;;;;;1.81;100.00;101804.19;4856396;29;20856;-75
2023/12/03 05:33:34;;;;;;;29.05;12.45;;;;;;;1.77;100.00;101809.50;4854269;29;20071;-75
2023/12/03 05:36:00;;;;;;;31.00;13.73;;;;;;;1.75;100.00;101800.69;4855365;29;20766;-75
2023/12/03 05:38:25;;;;;;;37.80;16.92;;;;;;;1.75;100.00;101803.47;4857017;29;20069;-75
2023/12/03 05:40:50;;;;;;;29.92;13.40;;;;;;;1.81;100.00;101802.28;4856736;29;20058;-75
2023/12/03 05:43:16;;;;;;;35.10;15.48;;;;;;;1.83;100.00;101813.00;4853569;29;20065;-75
2023/12/03 05:45:41;;;;;;;42.75;16.00;;;;;;;1.73;100.00;101811.22;4855530;29;20171;-75
2023/12/03 05:48:07;;;;;;;33.00;15.27;;;;;;;1.87;100.00;101802.19;4855882;29;20092;-75
2023/12/03 05:50:33;;;;;;;38.38;15.82;;;;;;;1.87;100.00;101807.72;4855970;29;20033;-75
2023/12/03 05:52:58;;;;;;;41.15;16.77;;;;;;;1.92;100.00;101804.88;4856000;29;20106;-75
2023/12/03 05:55:24;;;;;;;38.22;16.58;;;;;;;1.77;100.00;101812.28;4852357;29;20045;-75
2023/12/03 05:57:49;;;;;;;34.13;14.23;;;;;;;1.86;100.00;101808.84;4855386;29;20033;-75
2023/12/03 06:00:15;;;;;;;35.40;14.48;;;;;;;1.85;100.00;101809.97;4856601;29;20052;-76
2023/12/03 06:02:40;;;;;;;41.97;17.05;;;;;;;1.75;100.00;101820.03;4853143;29;20875;-75
2023/12/03 06:05:06;;;;;;;41.20;15.68;;;;;;;1.76;100.00;101818.88;4854129;29;20041;-76
2023/12/03 06:07:32;;;;;;;39.83;14.63;;;;;;;1.82;100.00;101803.09;4853059;29;20048;-75
2023/12/03 06:09:57;;;;;;;33.67;15.20;;;;;;;1.77;100.00;101814.19;4855340;29;20033;-76
2023/12/03 06:12:23;;;;;;;31.60;15.23;;;;;;;1.79;100.00;101818.31;4853638;29;20088;-76
2023/12/03 06:14:48;;;;;;;43.13;17.10;;;;;;;1.76;100.00;101815.31;4855491;29;20029;-76
2023/12/03 06:17:13;;;;;;;43.00;17.77;;;;;;;1.79;100.00;101823.84;4855220;29;20029;-76
2023/12/03 06:19:39;;;;;;;45.33;19.02;;;;;;;1.70;100.00;101817.31;4853684;29;20052;-75
2023/12/03 06:22:04;;;;;;;39.20;17.10;;;;;;;1.88;100.00;101801.06;4852219;29;20571;-76
2023/12/03 06:24:29;;;;;;;43.08;18.65;;;;;;;1.92;100.00;101805.72;4850502;29;20033;-75
2023/12/03 06:26:55;;;;;;;46.83;17.92;;;;;;;1.88;100.00;101814.88;4853885;29;20048;-75
2023/12/03 06:29:20;;;;;;;38.10;16.73;;;;;;;1.73;100.00;101819.50;4855718;29;20033;-75
2023/12/03 06:31:47;;;;;;;35.45;15.10;;;;;;;1.70;100.00;101814.53;4855072;29;20045;-75
2023/12/03 06:34:12;;;;;;;46.50;18.88;;;;;;;1.79;100.00;101818.31;4854294;29;20038;-75
2023/12/03 06:36:38;;;;;;;38.28;16.52;;;;;;;1.86;100.00;101828.19;4854809;29;20033;-76
2023/12/03 06:39:04;;;;;;;41.17;16.35;;;;;;;1.74;100.00;101823.88;4855525;29;20120;-76
2023/12/03 06:41:29;;;;;;;39.35;17.23;;;;;;;1.74;100.00;101826.66;4854234;29;20068;-76
2023/12/03 06:43:54;;;;;;;46.45;18.80;;;;;;;1.77;100.00;101831.59;4853049;29;20049;-76
2023/12/03 06:46:20;;;;;;;42.25;18.52;;;;;;;1.77;100.00;101833.50;4858691;29;20029;-76
2023/12/03 06:48:45;;;;;;;44.15;20.17;;;;;;;1.76;100.00;101823.59;4837758;29;20072;-76
2023/12/03 06:51:10;;;;;;;45.88;17.95;;;;;;;1.83;100.00;101830.41;4854973;29;20098;-76
2023/12/03 06:53:36;;;;;;;47.17;19.33;;;;;;;1.87;100.00;101835.34;4851080;29;20048;-76
2023/12/03 06:56:01;;;;;;;41.13;17.17;;;;;;;1.85;100.00;101834.81;4854587;29;20459;-76
2023/12/03 06:58:27;;;;;;;39.28;17.40;;;;;;;1.83;100.00;101840.63;4855292;29;20445;-76
2023/12/03 07:00:52;;;;;;;47.88;19.15;;;;;;;1.95;100.00;101845.72;4854995;29;20041;-77
2023/12/03 07:03:17;;;;;;;43.03;20.63;;;;;;;1.79;100.00;101840.41;4854367;29;20028;-76
2023/12/03 07:05:43;;;;;;;49.38;20.17;;;;;;;1.92;100.00;101843.53;4852387;29;20034;-77
2023/12/03 07:08:08;;;;;;;47.58;20.48;;;;;;;1.78;100.00;101843.44;4854870;29;20067;-76
2023/12/03 07:10:33;;;;;;;40.05;19.20;;;;;;;1.92;100.00;101854.59;4852752;29;20043;-76
2023/12/03 07:12:59;;;;;;;35.97;16.65;;;;;;;2.01;100.00;101852.81;4854477;29;20057;-76
2023/12/03 07:15:25;;;;;;;43.78;17.70;;;;;;;1.98;100.00;101854.25;4851033;29;20124;-76
2023/12/03 07:17:50;;;;;;;45.95;19.60;;;;;;;2.03;100.00;101867.16;4851769;29;20094;-76
2023/12/03 07:20:18;;;;;;;44.03;21.45;;;;;;;2.07;100.00;101867.38;4850759;29;20041;-76
2023/12/03 07:22:43;;;;;;;42.28;19.83;;;;;;;2.08;100.00;101867.09;4852315;29;20112;-77
2023/12/03 07:25:08;;;;;;;46.85;21.05;;;;;;;2.09;100.00;101862.38;4850922;29;22076;-76
2023/12/03 07:27:34;;;;;;;46.15;19.92;;;;;;;2.13;100.00;101867.03;4853370;29;20078;-76
2023/12/03 07:29:59;;;;;;;41.20;19.05;;;;;;;2.12;100.00;101864.56;4854277;29;20158;-77
2023/12/03 07:32:25;;;;;;;44.67;19.83;;;;;;;2.09;100.00;101856.84;4852311;29;20039;-77
2023/12/03 07:34:50;;;;;;;37.15;18.45;;;;;;;2.03;100.00;101865.22;4854007;29;20131;-77
2023/12/03 07:37:16;;;;;;;45.58;22.17;;;;;;;2.01;100.00;101869.41;4838014;29;20041;-77
2023/12/03 07:39:42;;;;;;;43.95;22.23;;;;;;;1.92;100.00;101865.63;4854367;29;20037;-77
2023/12/03 07:42:07;;;;;;;43.63;19.77;;;;;;;1.74;100.00;101865.28;4851928;29;20124;-77
2023/12/03 07:44:33;;;;;;;41.58;23.50;;;;;;;1.80;100.00;101874.34;4853570;29;20064;-78
2023/12/03 07:46:58;;;;;;;46.15;21.88;;;;;;;1.58;100.00;101872.94;4854783;29;20033;-76
2023/12/03 07:49:24;;;;;;;41.30;22.45;;;;;;;1.56;100.00;101869.66;4853730;29;20725;-76
2023/12/03 07:51:50;;;;;;;43.63;21.45;;;;;;;1.62;100.00;101873.16;4855921;29;20049;-75
2023/12/03 07:54:16;;;;;;;44.65;21.77;;;;;;;1.38;100.00;101873.97;4855381;29;20045;-75
2023/12/03 07:56:42;;;;;;;41.10;21.67;;;;;;;1.41;100.00;101862.34;4857548;29;20044;-75
2023/12/03 07:59:07;;;;;;;39.80;20.42;;;;;;;1.44;100.00;101868.41;4856182;29;22961;-75
2023/12/03 08:01:33;;;;;;;39.75;19.65;;;;;;;1.37;100.00;101877.84;4858803;29;20033;-75
2023/12/03 08:03:59;;;;;;;40.40;22.08;;;;;;;1.18;100.00;101885.16;4853729;29;20137;-75
2023/12/03 08:06:24;;;;;;;42.90;20.52;;;;;;;1.23;100.00;101887.91;4856649;29;20140;-75
2023/12/03 08:08:51;;;;;;;44.63;21.58;;;;;;;1.26;100.00;101879.03;4853124;29;20041;-76
2023/12/03 08:11:17;;;;;;;38.35;20.00;;;;;;;1.19;100.00;101881.31;4855131;29;20404;-76
2023/12/03 08:13:42;;;;;;;43.20;21.27;;;;;;;1.33;100.00;101887.81;4856665;29;20025;-75
2023/12/03 08:16:08;;;;;;;40.40;21.23;;;;;;;1.51;100.00;101888.19;4855676;29;20033;-76
2023/12/03 08:18:34;;;;;;;36.97;20.55;;;;;;;1.48;100.00;101889.59;4855339;29;20042;-76
2023/12/03 08:21:00;;;;;;;45.22;23.05;;;;;;;1.14;100.00;101889.63;4858121;29;20033;-76
2023/12/03 08:23:26;;;;;;;37.72;20.95;;;;;;;1.15;100.00;101891.28;4854908;29;20161;-76
2023/12/03 08:25:52;;;;;;;44.17;19.92;;;;;;;1.37;100.00;101904.59;4854562;29;20395;-75
2023/12/03 08:28:17;;;;;;;49.45;22.45;;;;;;;1.40;100.00;101899.31;4856594;29;20033;-76
2023/12/03 08:30:42;;;;;;;35.95;17.98;;;;;;;1.44;100.00;101899.56;4857675;29;20037;-76
2023/12/03 08:33:08;;;;;;;37.75;21.35;;;;;;;1.03;100.00;101899.91;4854958;29;20089;-75
2023/12/03 08:35:33;;;;;;;45.92;20.65;;;;;;;1.14;100.00;101903.41;4856844;29;20033;-76
2023/12/03 08:37:59;;;;;;;42.67;20.23;;;;;;;1.21;100.00;101906.69;4851871;29;20412;-76
2023/12/03 08:40:24;;;;;;;39.15;19.27;;;;;;;1.14;100.00;101900.66;4851456;29;20408;-76
2023/12/03 08:42:50;;;;;;;39.08;19.10;;;;;;;1.10;100.00;101899.63;4853079;29;20041;-75
2023/12/03 08:45:15;;;;;;;43.17;19.95;;;;;;;0.98;100.00;101906.31;4856346;29;20121;-76
2023/12/03 08:47:41;;;;;;;41.50;20.52;;;;;;;1.08;100.00;101896.31;4853220;29;20524;-76
2023/12/03 08:50:07;;;;;;;38.42;19.45;;;;;;;1.15;100.00;101908.66;4853125;29;20106;-75
2023/12/03 08:52:32;;;;;;;36.17;19.40;;;;;;;1.08;100.00;101913.69;4857718;29;20425;-75
2023/12/03 08:54:59;;;;;;;42.40;19.77;;;;;;;1.06;100.00;101904.88;4841039;29;20030;-76
2023/12/03 08:57:25;;;;;;;36.45;18.75;;;;;;;1.14;100.00;101911.69;4853178;29;20460;-73
2023/12/03 08:59:52;;;;;;;42.45;19.92;;;;;;;1.22;100.00;101911.06;4856400;29;20037;-73
2023/12/03 09:02:18;;;;;;;33.58;17.15;;;;;;;1.10;100.00;101905.13;4840289;29;20052;-74
2023/12/03 09:04:43;;;;;;;37.75;21.30;;;;;;;1.13;100.00;101910.06;4855052;29;20472;-73
2023/12/03 09:07:09;;;;;;;44.08;20.10;;;;;;;1.18;100.00;101912.75;4856562;29;20508;-73
2023/12/03 09:09:34;;;;;;;34.88;18.85;;;;;;;1.09;100.00;101908.97;4857235;29;20541;-73
2023/12/03 09:11:59;;;;;;;30.10;17.00;;;;;;;1.04;100.00;101907.09;4857120;29;20065;-75
2023/12/03 09:14:26;;;;;;;36.95;19.48;;;;;;;1.10;100.00;101910.66;4855580;29;20049;-74
2023/12/03 09:16:51;;;;;;;31.20;16.05;;;;;;;1.22;100.00;101916.56;4847225;29;20112;-73
2023/12/03 09:19:17;;;;;;;40.55;17.10;;;;;;;1.37;100.00;101910.94;4857277;29;20575;-75
2023/12/03 09:21:42;;;;;;;41.88;18.40;;;;;;;1.20;100.00;101916.88;4851693;29;20448;-74
2023/12/03 09:24:07;;;;;;;42.08;19.08;;;;;;;1.24;100.00;101914.34;4857503;29;20438;-72
2023/12/03 09:26:33;;;;;;;36.55;19.00;;;;;;;1.23;100.00;101914.66;4858076;29;20048;-73
2023/12/03 09:28:58;;;;;;;42.47;18.63;;;;;;;1.38;100.00;101918.09;4853757;29;20397;-73
2023/12/03 09:31:23;;;;;;;43.72;18.90;;;;;;;1.34;100.00;101914.25;4855266;29;20076;-72
2023/12/03 09:33:52;;;;;;;34.38;17.40;;;;;;;1.33;100.00;101923.66;4854466;29;20026;-72
2023/12/03 09:36:17;;;;;;;34.78;18.38;;;;;;;1.33;100.00;101918.16;4856238;29;20067;-76
2023/12/03 09:38:43;;;;;;;41.22;20.05;;;;;;;1.30;100.00;101915.97;4855333;29;20178;-74
2023/12/03 09:41:13;;;;;;;40.95;18.73;;;;;;;1.11;100.00;101913.09;4854535;29;20033;-73
2023/12/03 09:43:40;;;;;;;37.13;17.80;;;;;;;1.20;100.00;101913.28;4852826;29;20037;-73
2023/12/03 09:46:14;;;;;;;47.42;22.23;;;;;;;1.26;100.00;101914.88;4855775;29;20046;-74
2023/12/03 09:48:43;;;;;;;35.80;17.23;;;;;;;1.45;100.00;101917.75;4855664;29;20081;-72
2023/12/03 09:51:12;;;;;;;44.53;18.98;;;;;;;1.40;100.00;101910.34;4856587;29;20052;-72
2023/12/03 09:53:44;;;;;;;46.22;22.52;;;;;;;1.33;100.00;101920.06;4839186;29;20408;-72
2023/12/03 09:56:13;;;;;;;48.05;23.77;;;;;;;1.23;100.00;101909.97;4851388;29;20045;-73
2023/12/03 09:58:39;;;;;;;59.38;24.85;;;;;;;1.17;100.00;101922.16;4855158;29;20075;-72
2023/12/03 10:01:05;;;;;;;54.58;24.17;;;;;;;1.17;100.00;101922.16;4856271;29;20085;-73
2023/12/03 10:03:31;;;;;;;48.80;21.20;;;;;;;1.28;100.00;101923.69;4849414;29;20038;-73
2023/12/03 10:05:56;;;;;;;54.67;25.17;;;;;;;1.13;100.00;101926.59;4845845;29;20047;-72
2023/12/03 10:08:22;;;;;;;50.80;23.42;;;;;;;1.33;100.00;101920.06;4856361;29;20037;-74
2023/12/03 10:11:02;;;;;;;49.45;22.60;;;;;;;1.32;100.00;101913.72;4854060;29;20133;-75
2023/12/03 10:13:30;;;;;;;54.42;25.40;;;;;;;1.49;100.00;101913.31;4853066;29;20029;-74
2023/12/03 10:15:56;;;;;;;51.83;23.05;;;;;;;1.51;100.00;101911.06;4855583;29;20034;-75
2023/12/03 10:18:22;;;;;;;54.60;21.52;;;;;;;1.31;100.00;101920.38;4855471;29;20131;-74
2023/12/03 10:20:47;;;;;;;50.78;24.33;;;;;;;1.44;100.00;101912.53;4851858;29;20088;-74
2023/12/03 10:23:14;;;;;;;57.28;23.85;;;;;;;1.34;100.00;101911.50;4854340;29;20125;-76
2023/12/03 10:25:40;;;;;;;58.95;24.25;;;;;;;1.47;100.00;101910.00;4852484;29;20033;-75
2023/12/03 10:28:07;;;;;;;49.75;22.98;;;;;;;1.45;100.00;101897.63;4853361;29;20538;-75
2023/12/03 10:30:33;;;;;;;48.63;25.40;;;;;;;1.37;100.00;101904.59;4850939;29;20038;-76
2023/12/03 10:32:59;;;;;;;41.60;20.80;;;;;;;1.33;100.00;101896.09;4836148;29;20025;-75
2023/12/03 10:35:25;;;;;;;48.28;21.38;;;;;;;1.41;100.00;101898.22;4851562;29;20052;-75
2023/12/03 10:37:51;;;;;;;51.47;23.73;;;;;;;1.55;100.00;101911.31;4856152;29;20044;-75
2023/12/03 10:40:18;;;;;;;52.72;21.48;;;;;;;1.60;100.00;101902.97;4837815;29;20042;-75
2023/12/03 10:42:45;;;;;;;48.50;21.70;;;;;;;1.59;100.00;101901.34;4851832;29;20106;-75
2023/12/03 10:45:12;;;;;;;45.88;19.40;;;;;;;1.50;100.00;101908.63;4856337;29;20051;-75
2023/12/03 10:47:38;;;;;;;52.17;22.23;;;;;;;1.54;100.00;101904.13;4854187;29;20044;-75
2023/12/03 10:50:05;;;;;;;51.00;22.95;;;;;;;1.51;100.00;101904.75;4851806;29;20037;-75
2023/12/03 10:52:35;;;;;;;39.03;19.25;;;;;;;1.51;100.00;101885.41;4853250;29;20511;-76
2023/12/03 10:55:01;;;;;;;44.15;20.90;;;;;;;1.51;100.00;101891.75;4853240;29;20048;-75
2023/12/03 10:57:32;;;;;;;44.58;19.60;;;;;;;1.62;100.00;101885.03;4854444;29;20520;-75
2023/12/03 11:00:10;;;;;;;42.25;19.27;;;;;;;1.54;100.00;101893.09;4854540;29;20029;-76
2023/12/03 11:02:45;;;;;;;45.30;19.60;;;;;;;1.49;100.00;101890.41;4851561;29;20544;-75